William P Hobby Airport Houston US
ICAO: KHOU
IATA: HOU
Category: Large
Scheduled Services: Yes

Elevation: 46 ft
TransAlt. 18000 ft.

Airport Communications:
HOUSTON APP:120.05
ATIS:124.6
CLNC DEL:125.45
HOUSTON DEP:28.4
HOUSTON DEP:119.7
GND:121.9
MONTGOMERY CO RDO:122.35
HOBBY TWR:118.7
UNICOM:122.95

KHOU Zoom In..

Runways:

(A) RW 04 length 7602 ft width 150 ft
ILS 109.90 / hdg 39

(B) RW 12L length 5148 ft width 100 ft
LOC 109.90 / hdg 129

(C) RW 12R length 7602 ft width 150 ft
ILS 111.30 / hdg 129

(D) RW 17 length 6000 ft width 150 ft
LOC 109.90 / hdg 174

(E) RW 22 length 7602 ft width 150 ft
LOC 109.90 / hdg 219

(F) RW 30L length 7602 ft width 150 ft
ILS 111.30 / hdg 309

(G) RW 30R length 5148 ft width 100 ft
LOC 109.90 / hdg 309

(H) RW 35 length 6000 ft width 150 ft
LOC 109.90 / hdg 354

Location; KHOU
Day. 22 / Time. 03.53 Zulu
* Altimeter: 29.90
* Temperature: 19° c. 66.2°f.
* Wind from: 160° Speed 09 kn with Gusts up to 18 kn.
Dewpoint: 19° c.
Visibility: 7 Statute Miles.
Clouds: Overcast 700 ft.

KHOU 220353Z 16009G18KT 7SM OVC007 19/19 A2990 RMK AO2 RAB00E34 SLP130 P0001 T01940194


Wind From 160°
Speed 09 kn.

jpsM music video
CHECK IT OUT

jpsM - It Moves..

 
jpsmedia.com for Web Design  worldairports.se 2018   terms of use